Startpagina
METAR-TAF:

METAR-TAF

Vliegvelden :

Roman Tmetuchl International Airport

Koror, Babeldaob, Palau

breedte: 07-22N, lengte: 134-32E, hoogte: 54 m

Actueel weer

Dit bericht is 19 minuten geleden gemaakt, om 11:50 UTC
Wind 10 kt uit het noordnoordoosten met uitschieters tot 15 kt
Temperatuur 25°C
Vochtigheid 94%
Druk 1012 hPa
Zicht: 12.9 km
Gebroken wolken op 1500 ft, Cumulonimbus.
Geheel bewolkt op 28000 ft
regenbuien

METAR: PTRO 171150Z 03010G15KT 8SM SHRA BKN015CB OVC280 25/24 A2988 RMK CB ALQDS

Tijdstip: 21:09 (12:09 UTC)

Verwachting

Dit bericht is 44 minuten geleden gemaakt, om 11:25 UTC
Verwachting geldig van 17 om 12 UTC tot 18 om 12 UTC
Wind 7 kt uit het noorden
Zicht: 10 km
Verspreide wolken op 1500 ft
Gebroken wolken op 12000 ft
buien in de omgeving
Tijdelijke
van 17 om 12 UTC tot 17 om 16 UTC
Gebroken wolken op 1500 ft
lichte regenbuien

TAF: PTRO 171125Z 1712/1812 36007KT P6SM VCSH SCT015 BKN120 TEMPO 1712/1716 -SHRA BKN015

Waarnemingen en weersverwachtingen van meer dan 4000 vliegvelden (METAR en TAF).

De beschikbare stations zijn de gele en rode punten op de kaart.

Ga met uw muis naar het station om de naam te zien.

Klik dan om waarnemingen en weersverwachtingen te zien.

kaart wijzigen: klik op de groene knoppen met een zwart kruis om in te zoomen, op de groene knop met een streepje om uit te zoomen of op de groene pijlen voor aangrenzende kaarten.


METAR-TAF: